createdAt,value
2023-05-24T00:00:29.014Z,10.70
2023-05-24T00:03:22.487Z,12.00
2023-05-24T00:05:56.115Z,14.50
2023-05-24T00:08:28.934Z,11.70
2023-05-24T00:11:01.767Z,10.40
2023-05-24T00:13:34.675Z,13.70
2023-05-24T00:16:07.756Z,13.10
2023-05-24T00:18:41.730Z,12.50
2023-05-24T00:21:14.689Z,14.30
2023-05-24T00:23:47.717Z,12.70
2023-05-24T00:26:21.851Z,15.50
2023-05-24T00:28:59.991Z,17.00
2023-05-24T00:31:33.471Z,15.00
2023-05-24T00:34:06.736Z,15.50
2023-05-24T00:36:39.640Z,14.60
2023-05-24T00:39:12.617Z,13.10
2023-05-24T00:41:45.517Z,12.70
2023-05-24T00:44:18.781Z,13.60
2023-05-24T00:46:52.395Z,13.10
2023-05-24T00:49:27.237Z,11.80
2023-05-24T00:52:01.449Z,13.40
2023-05-24T00:54:34.284Z,10.00
2023-05-24T00:57:08.774Z,9.00
2023-05-24T00:59:41.767Z,11.30
2023-05-24T01:02:14.792Z,9.90
2023-05-24T01:04:49.884Z,12.20
2023-05-24T01:07:29.329Z,11.00
2023-05-24T01:10:11.937Z,9.90
2023-05-24T01:12:57.824Z,9.60
2023-05-24T01:15:43.155Z,10.10
2023-05-24T01:18:22.548Z,10.50
2023-05-24T01:21:17.868Z,11.40
2023-05-24T01:24:06.490Z,11.50
2023-05-24T01:26:49.862Z,11.60
2023-05-24T01:29:23.936Z,11.60
2023-05-24T01:31:58.403Z,15.60
2023-05-24T01:34:31.308Z,13.00
2023-05-24T01:37:04.093Z,13.30
2023-05-24T01:39:38.789Z,12.80
2023-05-24T01:42:22.521Z,12.90
2023-05-24T01:45:04.619Z,14.20
2023-05-24T01:47:49.364Z,12.20
2023-05-24T01:50:28.366Z,12.20
2023-05-24T01:53:05.642Z,12.30
2023-05-24T01:55:40.928Z,14.80
2023-05-24T01:58:15.379Z,12.80
2023-05-24T02:00:49.265Z,13.20
2023-05-24T02:03:22.817Z,13.00
2023-05-24T02:05:55.880Z,12.70
2023-05-24T02:08:29.298Z,14.70
2023-05-24T02:11:02.837Z,15.10
2023-05-24T02:13:36.696Z,14.80
2023-05-24T02:16:11.090Z,14.90
2023-05-24T02:18:46.960Z,16.00
2023-05-24T02:21:20.067Z,15.20
2023-05-24T02:23:53.626Z,14.90
2023-05-24T02:26:26.501Z,15.30
2023-05-24T02:28:59.394Z,18.60
2023-05-24T02:31:32.361Z,16.70
2023-05-24T02:34:05.482Z,19.20
2023-05-24T02:36:38.412Z,18.00
2023-05-24T02:39:11.586Z,17.70
2023-05-24T02:41:44.518Z,17.80
2023-05-24T02:44:17.593Z,18.20
2023-05-24T02:46:50.518Z,16.70
2023-05-24T02:49:23.777Z,17.60
2023-05-24T02:51:57.674Z,20.50
2023-05-24T02:54:30.523Z,22.30
2023-05-24T02:57:04.037Z,17.50
2023-05-24T02:59:37.421Z,20.40
2023-05-24T03:02:10.325Z,17.20
2023-05-24T03:04:44.230Z,17.90
2023-05-24T03:07:17.710Z,17.40
2023-05-24T03:09:50.673Z,17.10
2023-05-24T03:12:23.532Z,18.80
2023-05-24T03:14:57.620Z,19.40
2023-05-24T03:17:31.917Z,18.30
2023-05-24T03:20:08.224Z,17.80
2023-05-24T03:22:41.765Z,19.50
2023-05-24T03:25:14.810Z,18.30
2023-05-24T03:27:47.988Z,17.40
2023-05-24T03:30:21.685Z,18.60
2023-05-24T03:33:01.020Z,18.30
2023-05-24T03:35:34.662Z,20.80
2023-05-24T03:38:07.582Z,18.90
2023-05-24T03:40:41.410Z,18.50
2023-05-24T03:43:22.228Z,19.00
2023-05-24T03:46:01.931Z,18.30
2023-05-24T03:48:34.878Z,18.60
2023-05-24T03:51:09.909Z,18.50
2023-05-24T03:53:42.779Z,17.40
2023-05-24T03:56:16.181Z,17.90
2023-05-24T03:58:49.394Z,19.60
2023-05-24T04:01:33.420Z,16.10
2023-05-24T04:04:08.260Z,16.20
2023-05-24T04:06:42.333Z,16.70
2023-05-24T04:09:15.995Z,18.70
2023-05-24T04:11:48.913Z,16.20
2023-05-24T04:14:22.243Z,15.50
2023-05-24T04:16:55.372Z,15.00
2023-05-24T04:19:29.106Z,16.50
2023-05-24T04:22:02.036Z,14.30
2023-05-24T04:24:34.969Z,14.70
2023-05-24T04:27:10.203Z,15.10
2023-05-24T04:29:46.637Z,16.10
2023-05-24T04:32:20.972Z,18.20
2023-05-24T04:34:56.460Z,13.70
2023-05-24T04:37:30.124Z,15.60
2023-05-24T04:40:04.529Z,13.80
2023-05-24T04:42:37.625Z,16.70
2023-05-24T04:45:12.384Z,13.90
2023-05-24T04:47:45.451Z,14.80
2023-05-24T04:50:18.408Z,15.90
2023-05-24T04:52:51.278Z,15.40
2023-05-24T04:55:24.419Z,16.50
2023-05-24T04:57:57.300Z,14.90
2023-05-24T05:00:30.328Z,19.60
2023-05-24T05:03:04.060Z,15.80
2023-05-24T05:05:37.333Z,15.80
2023-05-24T05:08:10.202Z,15.70
2023-05-24T05:10:43.429Z,16.40
2023-05-24T05:13:16.684Z,17.00
2023-05-24T05:15:49.694Z,13.40
2023-05-24T05:18:22.674Z,18.30
2023-05-24T05:20:55.683Z,16.60
2023-05-24T05:23:29.554Z,17.30
2023-05-24T05:26:02.910Z,15.20
2023-05-24T05:28:35.917Z,14.00
2023-05-24T05:31:08.775Z,15.70
2023-05-24T05:33:42.954Z,14.00
2023-05-24T05:36:16.088Z,15.40
2023-05-24T05:38:49.752Z,15.00
2023-05-24T05:41:22.726Z,15.70
2023-05-24T05:43:56.208Z,16.40
2023-05-24T05:46:29.169Z,14.50
2023-05-24T05:49:02.173Z,15.60
2023-05-24T05:51:35.100Z,15.50
2023-05-24T05:54:09.009Z,14.10
2023-05-24T05:56:45.882Z,17.70
2023-05-24T05:59:19.750Z,14.50
2023-05-24T06:01:52.737Z,13.80
2023-05-24T06:04:25.698Z,15.80
2023-05-24T06:06:58.607Z,17.20
2023-05-24T06:09:31.445Z,13.80
2023-05-24T06:12:04.975Z,14.20
2023-05-24T06:14:38.583Z,13.50
2023-05-24T06:17:11.549Z,15.50
2023-05-24T06:19:44.918Z,13.60
2023-05-24T06:22:17.846Z,13.40
2023-05-24T06:24:51.230Z,15.70
2023-05-24T06:27:24.114Z,14.30
2023-05-24T06:29:57.859Z,16.90
2023-05-24T06:32:30.721Z,12.90
2023-05-24T06:35:04.287Z,14.10
2023-05-24T06:37:38.770Z,11.80
2023-05-24T06:40:13.504Z,11.90
2023-05-24T06:42:46.371Z,13.10
2023-05-24T06:45:19.749Z,12.30
2023-05-24T06:47:52.636Z,12.60
2023-05-24T06:50:25.541Z,13.80
2023-05-24T06:52:58.346Z,12.00
2023-05-24T06:55:31.298Z,14.10
2023-05-24T06:58:04.154Z,13.70
2023-05-24T07:00:37.783Z,14.60
2023-05-24T07:03:11.512Z,13.30
2023-05-24T07:05:44.485Z,12.60
2023-05-24T07:08:17.384Z,13.00
2023-05-24T07:10:50.209Z,16.70
2023-05-24T07:13:23.396Z,13.80
2023-05-24T07:15:56.405Z,13.60
2023-05-24T07:18:29.387Z,13.20
2023-05-24T07:21:02.327Z,14.40
2023-05-24T07:23:35.807Z,12.80
2023-05-24T07:26:09.437Z,15.00
2023-05-24T07:28:42.381Z,14.00
2023-05-24T07:31:15.213Z,16.50
2023-05-24T07:33:48.911Z,15.20
2023-05-24T07:36:22.376Z,15.90
2023-05-24T07:38:55.667Z,15.50
2023-05-24T07:41:30.628Z,15.20
2023-05-24T07:44:03.491Z,14.70
2023-05-24T07:46:36.367Z,15.90
2023-05-24T07:49:09.953Z,13.60
2023-05-24T07:51:42.984Z,13.90
2023-05-24T07:54:16.255Z,13.80
2023-05-24T07:56:50.438Z,14.70
2023-05-24T07:59:23.826Z,15.80
2023-05-24T08:02:01.776Z,16.00
2023-05-24T08:04:35.639Z,14.20
2023-05-24T08:07:11.096Z,15.00
2023-05-24T08:09:44.134Z,15.30
2023-05-24T08:12:17.365Z,17.40
2023-05-24T08:14:50.870Z,16.10
2023-05-24T08:17:23.842Z,14.60
2023-05-24T08:19:57.237Z,14.10
2023-05-24T08:22:30.067Z,13.70
2023-05-24T08:25:03.888Z,13.40
2023-05-24T08:27:37.269Z,13.50
2023-05-24T08:30:13.918Z,14.90
2023-05-24T08:32:46.962Z,16.80
2023-05-24T08:35:21.460Z,15.20
2023-05-24T08:37:54.817Z,13.70
2023-05-24T08:40:28.118Z,14.50
2023-05-24T08:43:03.356Z,14.00
2023-05-24T08:45:41.387Z,13.40
2023-05-24T08:48:15.273Z,14.00
2023-05-24T08:50:49.169Z,13.70
2023-05-24T08:53:25.982Z,13.00
2023-05-24T08:55:59.418Z,13.20
2023-05-24T08:58:33.182Z,13.40
2023-05-24T09:01:07.544Z,14.40
2023-05-24T09:03:42.399Z,15.70
2023-05-24T09:06:18.209Z,14.60
2023-05-24T09:08:52.805Z,13.10
2023-05-24T09:11:28.041Z,16.10
2023-05-24T09:14:02.158Z,17.10
2023-05-24T09:16:35.820Z,13.90
2023-05-24T09:19:08.751Z,13.70
2023-05-24T09:21:42.019Z,13.40
2023-05-24T09:24:15.572Z,13.60
2023-05-24T09:26:50.768Z,13.10
2023-05-24T09:29:26.685Z,16.80
2023-05-24T09:32:00.640Z,14.80
2023-05-24T09:34:41.683Z,13.50
2023-05-24T09:37:17.207Z,13.10
2023-05-24T09:39:51.750Z,13.30
2023-05-24T09:42:26.899Z,14.10
2023-05-24T09:45:06.768Z,13.70
2023-05-24T09:47:42.006Z,17.10
2023-05-24T09:50:18.204Z,12.20
2023-05-24T09:52:54.891Z,12.40
2023-05-24T09:55:31.170Z,14.50
2023-05-24T09:58:09.836Z,16.20
2023-05-24T10:00:44.203Z,15.80
2023-05-24T10:03:17.336Z,14.90
2023-05-24T10:05:51.655Z,14.00
2023-05-24T10:08:24.792Z,12.70
2023-05-24T10:10:58.693Z,14.00
2023-05-24T10:13:31.716Z,11.90
2023-05-24T10:16:04.783Z,12.80
2023-05-24T10:18:37.986Z,12.00
2023-05-24T10:21:12.484Z,12.20
2023-05-24T10:23:53.431Z,11.70
2023-05-24T10:26:30.976Z,10.90
2023-05-24T10:29:09.424Z,10.10
2023-05-24T10:31:45.153Z,11.10
2023-05-24T10:34:18.491Z,10.50
2023-05-24T10:36:52.011Z,11.40
2023-05-24T10:39:26.917Z,10.50
2023-05-24T10:42:03.564Z,11.30
2023-05-24T10:44:37.428Z,12.10
2023-05-24T10:47:14.691Z,11.80
2023-05-24T10:49:53.540Z,10.90
2023-05-24T10:52:37.272Z,12.00
2023-05-24T10:55:12.162Z,15.40
2023-05-24T10:57:45.114Z,10.20
2023-05-24T11:00:35.627Z,11.10
2023-05-24T11:03:12.041Z,11.30
2023-05-24T11:05:55.909Z,13.60
2023-05-24T11:08:35.590Z,12.60
2023-05-24T11:11:24.471Z,15.10
2023-05-24T11:14:02.291Z,13.40
2023-05-24T11:16:40.725Z,10.70
2023-05-24T11:19:18.887Z,10.40
2023-05-24T11:21:58.973Z,11.30
2023-05-24T11:24:32.487Z,9.90
2023-05-24T11:27:06.322Z,11.00
2023-05-24T11:29:46.157Z,11.20
2023-05-24T11:32:24.248Z,9.30
2023-05-24T11:34:58.047Z,11.00
2023-05-24T11:37:42.490Z,13.80
2023-05-24T11:40:20.437Z,11.70
2023-05-24T11:42:53.743Z,10.30
2023-05-24T11:45:26.833Z,12.80
2023-05-24T11:48:06.035Z,14.10
2023-05-24T11:50:49.469Z,12.50
2023-05-24T11:53:23.392Z,13.20
2023-05-24T11:55:57.555Z,10.50
2023-05-24T11:58:50.942Z,12.80
2023-05-24T12:01:28.749Z,12.50
2023-05-24T12:04:02.046Z,10.40
2023-05-24T12:06:43.302Z,12.10
2023-05-24T12:09:18.233Z,12.90
2023-05-24T12:11:52.736Z,10.90
2023-05-24T12:14:31.308Z,11.60
2023-05-24T12:17:05.181Z,10.80
2023-05-24T12:19:38.575Z,10.30
2023-05-24T12:22:11.646Z,11.30
2023-05-24T12:24:44.715Z,9.70
2023-05-24T12:27:17.556Z,11.10
2023-05-24T12:29:50.660Z,10.10
2023-05-24T12:32:23.646Z,12.40
2023-05-24T12:34:56.658Z,10.70
2023-05-24T12:37:34.085Z,9.40
2023-05-24T12:40:15.900Z,11.30
2023-05-24T12:42:51.755Z,11.00
2023-05-24T12:45:26.123Z,9.70
2023-05-24T12:48:02.925Z,9.70
2023-05-24T12:50:36.111Z,8.10
2023-05-24T12:53:08.993Z,10.80
2023-05-24T12:55:43.358Z,11.20
2023-05-24T12:58:17.606Z,15.80
2023-05-24T13:00:52.337Z,15.10
2023-05-24T13:03:25.483Z,10.10
2023-05-24T13:06:00.099Z,8.30
2023-05-24T13:08:33.018Z,9.60
2023-05-24T13:11:06.079Z,9.80
2023-05-24T13:13:39.804Z,9.80
2023-05-24T13:16:12.760Z,10.00
2023-05-24T13:18:47.356Z,11.10
2023-05-24T13:21:20.774Z,10.40
2023-05-24T13:23:54.080Z,11.90
2023-05-24T13:26:27.033Z,10.50
2023-05-24T13:31:38.156Z,8.10
2023-05-24T13:34:11.764Z,10.50
2023-05-24T13:36:46.695Z,8.60
2023-05-24T13:39:19.981Z,9.40
2023-05-24T13:41:53.042Z,9.70
2023-05-24T13:44:26.149Z,9.00
2023-05-24T13:46:59.238Z,11.40
2023-05-24T13:49:32.383Z,8.50
2023-05-24T13:52:05.391Z,8.20
2023-05-24T13:54:38.699Z,7.90
2023-05-24T13:57:11.557Z,10.20
2023-05-24T13:59:44.601Z,9.90
2023-05-24T14:02:18.881Z,9.10
2023-05-24T14:04:52.627Z,7.80
2023-05-24T14:07:25.592Z,7.70
2023-05-24T14:09:58.586Z,10.60
2023-05-24T14:12:31.857Z,10.30
2023-05-24T14:15:06.742Z,15.90
2023-05-24T14:17:39.717Z,10.20
2023-05-24T14:20:13.855Z,8.50
2023-05-24T14:22:46.986Z,7.60
2023-05-24T14:25:20.110Z,8.40
2023-05-24T14:27:53.019Z,8.80
2023-05-24T14:30:26.044Z,10.50
2023-05-24T14:32:59.367Z,9.70
2023-05-24T14:35:38.281Z,8.10
2023-05-24T14:38:12.854Z,7.70
2023-05-24T14:40:47.797Z,8.70
2023-05-24T14:43:20.951Z,12.30
2023-05-24T14:45:53.928Z,8.10
2023-05-24T14:48:27.146Z,10.30
2023-05-24T14:51:00.178Z,8.80
2023-05-24T14:53:33.169Z,10.30
2023-05-24T14:56:08.528Z,10.80
2023-05-24T14:58:41.484Z,11.50
2023-05-24T15:01:14.451Z,11.70
2023-05-24T15:03:47.814Z,9.20
2023-05-24T15:06:21.187Z,9.60
2023-05-24T15:08:56.324Z,10.00
2023-05-24T15:11:29.338Z,15.80
2023-05-24T15:14:03.525Z,13.40
2023-05-24T15:16:37.691Z,10.40
2023-05-24T15:19:10.671Z,11.30
2023-05-24T15:21:43.665Z,9.40
2023-05-24T15:24:16.704Z,10.00
2023-05-24T15:26:49.752Z,10.90
2023-05-24T15:29:22.860Z,11.00
2023-05-24T15:31:58.730Z,10.90
2023-05-24T15:34:31.705Z,8.40
2023-05-24T15:37:04.618Z,8.70
2023-05-24T15:39:37.664Z,10.40
2023-05-24T15:42:10.977Z,9.40
2023-05-24T15:44:44.030Z,12.20
2023-05-24T15:47:17.565Z,11.20
2023-05-24T15:49:51.602Z,11.40
2023-05-24T15:52:24.442Z,11.20
2023-05-24T15:54:57.361Z,12.10
2023-05-24T15:57:30.413Z,10.70
2023-05-24T16:00:04.038Z,9.30
2023-05-24T16:02:46.035Z,10.60
2023-05-24T16:05:22.751Z,11.30
2023-05-24T16:07:55.686Z,11.10
2023-05-24T16:10:28.590Z,9.70
2023-05-24T16:13:01.417Z,9.60
2023-05-24T16:15:36.108Z,10.30
2023-05-24T16:18:09.737Z,11.00
2023-05-24T16:20:42.945Z,10.50
2023-05-24T16:23:16.413Z,9.80
2023-05-24T16:25:49.503Z,11.80
2023-05-24T16:28:24.983Z,12.30
2023-05-24T16:30:58.878Z,10.50
2023-05-24T16:33:31.901Z,10.20
2023-05-24T16:36:05.017Z,10.60
2023-05-24T16:38:38.326Z,10.50
2023-05-24T16:41:11.539Z,11.90
2023-05-24T16:43:44.487Z,10.40
2023-05-24T16:46:17.521Z,10.90
2023-05-24T16:48:50.949Z,12.30
2023-05-24T16:51:24.536Z,10.80
2023-05-24T16:53:57.486Z,12.10
2023-05-24T16:56:30.688Z,10.80
2023-05-24T16:59:03.537Z,11.50
2023-05-24T17:01:37.741Z,10.20
2023-05-24T17:04:10.685Z,12.10
2023-05-24T17:06:43.768Z,13.70
2023-05-24T17:09:16.976Z,14.20
2023-05-24T17:11:50.916Z,10.90
2023-05-24T17:14:24.044Z,12.10
2023-05-24T17:16:56.945Z,13.80
2023-05-24T17:19:29.868Z,12.70
2023-05-24T17:22:02.752Z,11.40
2023-05-24T17:24:35.789Z,12.10
2023-05-24T17:27:09.169Z,11.50
2023-05-24T17:29:44.753Z,12.10
2023-05-24T17:32:17.767Z,12.20
2023-05-24T17:34:50.750Z,12.40
2023-05-24T17:37:23.750Z,12.00
2023-05-24T17:39:56.625Z,12.30
2023-05-24T17:42:29.628Z,12.80
2023-05-24T17:45:02.860Z,11.60
2023-05-24T17:47:35.867Z,13.80
2023-05-24T17:50:11.145Z,11.50
2023-05-24T17:52:43.943Z,14.10
2023-05-24T17:55:17.000Z,14.40
2023-05-24T17:57:50.880Z,14.00
2023-05-24T18:00:24.158Z,20.00
2023-05-24T18:02:57.067Z,13.20
2023-05-24T18:05:30.211Z,14.80
2023-05-24T18:08:03.607Z,16.30
2023-05-24T18:10:36.658Z,15.80
2023-05-24T18:13:10.620Z,16.10
2023-05-24T18:15:44.410Z,16.30
2023-05-24T18:18:17.655Z,14.80
2023-05-24T18:20:52.325Z,13.10
2023-05-24T18:23:25.357Z,18.00
2023-05-24T18:26:00.605Z,13.30
2023-05-24T18:28:37.872Z,14.60
2023-05-24T18:31:11.897Z,14.70
2023-05-24T18:33:45.405Z,14.70
2023-05-24T18:36:18.464Z,12.90
2023-05-24T18:38:51.325Z,12.90
2023-05-24T18:41:24.245Z,13.50
2023-05-24T18:43:57.211Z,17.70
2023-05-24T18:46:30.109Z,15.90
2023-05-24T18:49:03.496Z,15.10
2023-05-24T18:51:38.032Z,15.50
2023-05-24T18:54:11.020Z,20.10
2023-05-24T18:56:45.909Z,15.00
2023-05-24T18:59:18.921Z,16.40
2023-05-24T19:01:53.638Z,14.50
2023-05-24T19:04:26.744Z,16.30
2023-05-24T19:06:59.999Z,19.60
2023-05-24T19:09:32.935Z,14.60
2023-05-24T19:12:09.892Z,14.20
2023-05-24T19:14:43.121Z,17.00
2023-05-24T19:17:16.003Z,15.60
2023-05-24T19:19:49.584Z,14.20
2023-05-24T19:22:22.636Z,15.80
2023-05-24T19:24:56.154Z,19.60
2023-05-24T19:27:29.093Z,16.70
2023-05-24T19:30:01.965Z,17.20
2023-05-24T19:32:35.971Z,19.60
2023-05-24T19:35:11.286Z,15.90
2023-05-24T19:37:44.178Z,20.60
2023-05-24T19:40:17.066Z,17.10
2023-05-24T19:42:49.931Z,14.50
2023-05-24T19:45:22.913Z,15.30
2023-05-24T19:47:55.918Z,17.50
2023-05-24T19:50:31.152Z,16.40
2023-05-24T19:53:04.650Z,16.80
2023-05-24T19:55:38.128Z,17.70
2023-05-24T19:58:11.164Z,17.10
2023-05-24T20:00:44.020Z,16.90
2023-05-24T20:03:17.060Z,17.80
2023-05-24T20:05:50.001Z,19.20
2023-05-24T20:08:22.933Z,18.20
2023-05-24T20:10:56.048Z,20.50
2023-05-24T20:13:29.000Z,19.00
2023-05-24T20:16:03.019Z,20.00
2023-05-24T20:18:36.525Z,20.90
2023-05-24T20:21:09.527Z,21.40
2023-05-24T20:23:44.279Z,18.00
2023-05-24T20:26:17.282Z,19.50
2023-05-24T20:28:52.343Z,20.30
2023-05-24T20:31:25.298Z,22.40
2023-05-24T20:33:58.155Z,17.20
2023-05-24T20:36:32.324Z,17.50
2023-05-24T20:39:05.527Z,19.30
2023-05-24T20:41:38.425Z,23.90
2023-05-24T20:44:11.252Z,24.10
2023-05-24T20:46:44.161Z,22.90
2023-05-24T20:49:17.019Z,20.20
2023-05-24T20:51:50.019Z,20.80
2023-05-24T20:54:22.947Z,19.40
2023-05-24T20:56:55.848Z,22.50
2023-05-24T20:59:29.432Z,25.70
2023-05-24T21:02:02.295Z,22.40
2023-05-24T21:04:35.301Z,21.70
2023-05-24T21:07:09.266Z,19.80
2023-05-24T21:09:42.127Z,20.30
2023-05-24T21:12:15.057Z,19.60
2023-05-24T21:14:48.151Z,20.80
2023-05-24T21:17:20.974Z,19.90
2023-05-24T21:19:53.856Z,21.80
2023-05-24T21:22:26.743Z,20.10
2023-05-24T21:24:59.860Z,23.30
2023-05-24T21:27:32.727Z,19.40
2023-05-24T21:30:06.215Z,24.00
2023-05-24T21:32:39.213Z,22.90
2023-05-24T21:35:13.132Z,21.20
2023-05-24T21:37:46.595Z,20.60
2023-05-24T21:40:19.732Z,24.80
2023-05-24T21:42:52.620Z,23.90
2023-05-24T21:45:25.453Z,23.10
2023-05-24T21:47:58.390Z,20.40
2023-05-24T21:50:31.930Z,20.10
2023-05-24T21:53:05.220Z,21.00
2023-05-24T21:55:38.152Z,23.50
2023-05-24T21:58:11.096Z,22.10
2023-05-24T22:00:44.002Z,20.80
2023-05-24T22:03:17.014Z,23.70
2023-05-24T22:05:50.207Z,20.50
2023-05-24T22:08:23.083Z,22.10
2023-05-24T22:10:56.713Z,24.20
2023-05-24T22:13:29.607Z,22.00
2023-05-24T22:16:02.552Z,23.00
2023-05-24T22:18:35.622Z,20.80
2023-05-24T22:21:08.635Z,21.20
2023-05-24T22:23:41.549Z,19.20
2023-05-24T22:26:17.274Z,19.80
2023-05-24T22:28:55.359Z,22.20
2023-05-24T22:31:29.112Z,21.00
2023-05-24T22:34:02.899Z,23.20
2023-05-24T22:36:38.152Z,22.20
2023-05-24T22:39:11.735Z,24.60
2023-05-24T22:41:44.602Z,19.80
2023-05-24T22:44:17.659Z,20.10
2023-05-24T22:46:54.058Z,21.60
2023-05-24T22:49:29.813Z,21.80
2023-05-24T22:52:02.837Z,22.20
2023-05-24T22:54:35.849Z,19.40
2023-05-24T22:57:08.878Z,21.40
2023-05-24T22:59:42.986Z,23.40
2023-05-24T23:02:15.955Z,22.20
2023-05-24T23:04:49.424Z,21.20
2023-05-24T23:07:22.388Z,19.80
2023-05-24T23:09:55.300Z,19.10
2023-05-24T23:12:28.288Z,22.00
2023-05-24T23:15:01.151Z,20.80
2023-05-24T23:17:34.084Z,20.50
2023-05-24T23:20:10.379Z,21.30
2023-05-24T23:22:43.437Z,22.10
2023-05-24T23:25:16.263Z,20.30
2023-05-24T23:27:49.231Z,22.10
2023-05-24T23:30:22.270Z,23.60
2023-05-24T23:32:55.129Z,22.20
2023-05-24T23:35:27.989Z,21.00
2023-05-24T23:38:01.555Z,23.40
2023-05-24T23:40:34.600Z,22.60
2023-05-24T23:43:07.512Z,23.50
2023-05-24T23:45:40.448Z,20.80
2023-05-24T23:48:13.310Z,19.50
2023-05-24T23:50:53.956Z,20.60
2023-05-24T23:53:27.817Z,20.30
2023-05-24T23:56:00.745Z,18.10
2023-05-24T23:58:33.680Z,21.60
